Time;durP1;ratioP1;P1;durP2;ratioP2;P2;SDS_P1;SDS_P2;PMS_P1;PMS_P2;Temp;Humidity;BMP_temperature;BMP_pressure;BME280_temperature;BME280_humidity;BME280_pressure;Samples;Min_cycle;Max_cycle;Signal;HPM_P1;HPM_P2
2022/09/28 00:00:29;;;;;;;5.30;4.03;;;;;;;9.74;67.62;98758.47;5072491;28;20040;-54
2022/09/28 00:02:57;;;;;;;5.45;4.22;;;;;;;9.57;68.54;98761.91;5072763;28;20117;-55
2022/09/28 00:05:25;;;;;;;6.50;4.30;;;;;;;9.71;67.47;98750.75;5072296;28;20051;-57
2022/09/28 00:07:55;;;;;;;5.25;4.13;;;;;;;9.63;68.10;98755.97;5071493;28;20032;-53
2022/09/28 00:10:24;;;;;;;6.20;4.22;;;;;;;9.54;68.51;98760.34;5072196;28;20058;-55
2022/09/28 00:12:51;;;;;;;5.32;3.97;;;;;;;9.60;68.60;98759.78;5071919;28;20370;-57
2022/09/28 00:15:17;;;;;;;7.70;4.20;;;;;;;9.65;68.22;98748.66;5072231;28;20031;-56
2022/09/28 00:17:43;;;;;;;4.03;3.63;;;;;;;9.59;69.04;98751.91;5072334;28;20127;-53
2022/09/28 00:20:10;;;;;;;5.03;4.53;;;;;;;9.65;68.47;98737.97;5072489;28;20043;-54
2022/09/28 00:22:36;;;;;;;4.28;3.88;;;;;;;9.48;68.71;98715.53;5072602;28;20111;-54
2022/09/28 00:25:02;;;;;;;4.55;3.63;;;;;;;9.55;69.43;98729.16;5072218;28;20111;-55
2022/09/28 00:27:28;;;;;;;3.97;3.40;;;;;;;9.62;68.37;98731.06;5072334;28;20029;-54
2022/09/28 00:29:54;;;;;;;5.32;4.03;;;;;;;9.60;68.71;98714.34;5071615;28;20104;-54
2022/09/28 00:32:23;;;;;;;5.35;3.05;;;;;;;9.74;68.21;98731.75;5072282;28;20024;-55
2022/09/28 00:34:50;;;;;;;3.38;2.95;;;;;;;9.90;67.55;98714.25;5072355;28;20410;-56
2022/09/28 00:37:17;;;;;;;4.40;3.47;;;;;;;9.63;68.72;98721.25;5071918;28;20028;-51
2022/09/28 00:39:44;;;;;;;6.63;3.78;;;;;;;9.40;69.13;98694.00;5075564;28;20060;-55
2022/09/28 00:42:13;;;;;;;4.28;3.10;;;;;;;9.60;69.13;98711.69;5076808;28;20035;-56
2022/09/28 00:44:41;;;;;;;4.25;3.45;;;;;;;9.48;69.79;98704.84;5076657;28;20024;-53
2022/09/28 00:47:22;;;;;;;3.83;3.17;;;;;;;9.43;69.71;98707.94;5076285;28;20032;-56
2022/09/28 00:50:01;;;;;;;4.43;3.47;;;;;;;9.60;68.91;98709.00;5075639;28;20106;-53
2022/09/28 00:52:33;;;;;;;3.75;2.75;;;;;;;9.58;69.27;98705.63;5076379;28;20040;-53
2022/09/28 00:55:01;;;;;;;3.75;3.38;;;;;;;9.45;69.65;98702.47;5075613;28;20455;-56
2022/09/28 00:57:28;;;;;;;4.53;3.38;;;;;;;9.49;69.39;98698.50;5076069;28;20043;-55
2022/09/28 00:59:54;;;;;;;3.20;2.50;;;;;;;9.45;69.63;98703.28;5075787;28;20415;-55
2022/09/28 01:02:20;;;;;;;3.40;3.10;;;;;;;9.52;69.08;98698.22;5075990;28;20067;-53
2022/09/28 01:04:47;;;;;;;3.88;3.33;;;;;;;9.57;69.03;98687.09;5075350;28;20051;-53
2022/09/28 01:07:15;;;;;;;4.20;3.03;;;;;;;9.32;70.07;98684.91;5075999;28;20033;-57
2022/09/28 01:09:40;;;;;;;4.03;2.55;;;;;;;9.68;68.52;98675.38;5076055;28;20037;-57
2022/09/28 01:12:06;;;;;;;3.42;3.13;;;;;;;9.45;69.14;98675.75;5075621;28;20354;-56
2022/09/28 01:14:32;;;;;;;5.07;3.10;;;;;;;9.29;70.01;98663.81;5075655;28;20067;-56
2022/09/28 01:17:25;;;;;;;4.35;2.95;;;;;;;9.53;69.44;98670.50;5075647;28;20407;-57
2022/09/28 01:19:51;;;;;;;2.63;2.42;;;;;;;9.45;69.38;98659.72;5074849;28;20110;-54
2022/09/28 01:22:16;;;;;;;3.42;2.90;;;;;;;9.37;69.89;98662.25;5075538;28;20040;-55
2022/09/28 01:24:46;;;;;;;3.05;2.75;;;;;;;9.31;70.35;98659.16;5075701;28;20411;-57
2022/09/28 01:27:56;;;;;;;4.80;2.60;;;;;;;9.49;70.46;98655.75;5076150;28;20433;-55
2022/09/28 01:30:22;;;;;;;2.80;2.60;;;;;;;9.39;70.06;98654.94;5050748;28;20048;-55
2022/09/28 01:33:05;;;;;;;3.25;2.95;;;;;;;9.56;69.46;98654.16;5072025;28;20040;-54
2022/09/28 01:35:44;;;;;;;4.57;3.05;;;;;;;9.45;70.07;98649.03;5074522;28;20056;-55
2022/09/28 01:38:24;;;;;;;2.92;2.63;;;;;;;9.57;69.37;98647.00;5075291;28;20025;-57
2022/09/28 01:40:51;;;;;;;2.50;2.30;;;;;;;9.47;68.93;98618.47;5075680;28;20032;-54
2022/09/28 01:43:21;;;;;;;4.78;2.63;;;;;;;9.46;69.62;98635.50;5075033;28;20032;-53
2022/09/28 01:45:52;;;;;;;4.43;2.03;;;;;;;9.64;68.63;98632.06;5075290;28;20040;-53
2022/09/28 01:48:36;;;;;;;4.00;2.35;;;;;;;9.47;69.44;98623.81;5074862;28;20079;-52
2022/09/28 01:51:11;;;;;;;3.55;2.80;;;;;;;9.38;69.85;98637.22;5075179;28;20037;-56
2022/09/28 01:53:43;;;;;;;3.42;2.03;;;;;;;9.51;69.76;98621.72;5073934;28;20049;-56
2022/09/28 01:56:38;;;;;;;3.28;2.45;;;;;;;9.52;69.59;98628.75;5074653;28;20028;-53
2022/09/28 01:59:12;;;;;;;2.80;2.45;;;;;;;9.51;69.45;98621.72;5073809;28;20354;-53
2022/09/28 02:01:53;;;;;;;2.40;1.85;;;;;;;9.60;69.34;98620.81;5074874;28;20090;-55
2022/09/28 02:04:23;;;;;;;3.92;2.72;;;;;;;9.33;70.28;98617.13;5074536;28;20056;-53
2022/09/28 02:06:57;;;;;;;5.38;2.15;;;;;;;9.24;70.31;98604.66;5074594;28;20093;-56
2022/09/28 02:09:48;;;;;;;7.22;2.78;;;;;;;9.33;70.24;98606.44;5074448;28;20020;-57
2022/09/28 02:12:23;;;;;;;3.05;2.78;;;;;;;9.28;70.39;98600.69;5074546;28;20036;-55
2022/09/28 02:14:56;;;;;;;4.00;2.58;;;;;;;9.37;70.00;98593.66;5074672;28;20112;-53
2022/09/28 02:17:21;;;;;;;2.83;2.60;;;;;;;9.14;71.25;98588.66;5074391;28;20033;-55
2022/09/28 02:19:47;;;;;;;3.35;2.75;;;;;;;9.10;71.46;98586.41;5074103;28;20028;-59
2022/09/28 02:22:48;;;;;;;3.25;2.80;;;;;;;9.31;70.87;98579.03;5074820;28;20396;-54
2022/09/28 02:25:26;;;;;;;5.07;2.33;;;;;;;9.19;70.52;98553.53;5074448;28;20029;-54
2022/09/28 02:28:06;;;;;;;5.43;3.03;;;;;;;9.28;70.95;98576.66;5074430;28;20033;-56
2022/09/28 02:30:35;;;;;;;3.70;2.72;;;;;;;9.19;70.72;98570.38;5054508;28;20120;-55
2022/09/28 02:33:18;;;;;;;3.17;2.70;;;;;;;9.39;70.44;98572.13;5054164;28;20363;-56
2022/09/28 02:35:44;;;;;;;2.95;2.30;;;;;;;9.20;71.12;98565.88;5054301;28;20033;-56
2022/09/28 02:38:12;;;;;;;4.20;2.65;;;;;;;9.09;71.94;98574.06;5060414;28;20025;-52
2022/09/28 02:40:38;;;;;;;3.72;2.20;;;;;;;9.24;70.91;98556.59;5074110;28;20128;-54
2022/09/28 02:43:25;;;;;;;4.25;2.33;;;;;;;9.37;70.40;98544.72;5074104;28;20028;-57
2022/09/28 02:46:09;;;;;;;3.00;2.70;;;;;;;9.25;70.66;98557.41;5074216;28;20044;-50
2022/09/28 02:49:05;;;;;;;4.32;3.10;;;;;;;9.24;71.17;98551.25;5073370;28;20055;-50
2022/09/28 02:51:45;;;;;;;3.55;2.67;;;;;;;9.22;71.07;98553.22;5073679;28;20474;-49
2022/09/28 02:54:28;;;;;;;2.60;2.40;;;;;;;9.09;71.87;98552.69;5074003;28;20072;-54
2022/09/28 02:57:22;;;;;;;4.50;2.13;;;;;;;9.16;71.50;98545.78;5073737;28;20032;-52
2022/09/28 03:00:11;;;;;;;5.28;2.55;;;;;;;9.32;70.93;98539.84;5054473;28;20040;-53
2022/09/28 03:02:46;;;;;;;3.25;2.47;;;;;;;9.13;72.28;98543.41;5073351;28;20049;-51
2022/09/28 03:05:24;;;;;;;3.30;2.63;;;;;;;9.13;72.45;98535.38;5074053;28;20062;-52
2022/09/28 03:07:58;;;;;;;3.63;2.58;;;;;;;9.13;72.26;98530.06;5073091;28;20059;-59
2022/09/28 03:10:31;;;;;;;2.83;2.40;;;;;;;9.29;71.45;98532.94;5073189;28;20033;-53
2022/09/28 03:12:58;;;;;;;3.40;2.40;;;;;;;9.19;72.11;98537.50;5073587;28;20459;-54
2022/09/28 03:15:28;;;;;;;3.38;2.35;;;;;;;9.17;72.09;98534.97;5073934;28;20055;-52
2022/09/28 03:17:55;;;;;;;3.90;2.38;;;;;;;9.16;72.26;98537.75;5061236;28;20036;-53
2022/09/28 03:20:20;;;;;;;2.53;2.28;;;;;;;9.17;72.33;98539.47;5053291;28;20451;-58
2022/09/28 03:22:46;;;;;;;3.75;2.70;;;;;;;9.11;72.07;98518.69;5053930;28;20086;-52
2022/09/28 03:25:11;;;;;;;3.08;2.55;;;;;;;9.21;71.53;98519.50;5053454;28;20086;-53
2022/09/28 03:27:38;;;;;;;4.90;2.80;;;;;;;9.16;72.10;98513.72;5058404;28;20071;-53
2022/09/28 03:30:04;;;;;;;3.30;2.75;;;;;;;9.19;72.23;98524.16;5073088;28;20033;-53
2022/09/28 03:32:29;;;;;;;4.95;2.50;;;;;;;9.20;72.19;98515.16;5073395;28;20154;-54
2022/09/28 03:34:55;;;;;;;4.78;2.80;;;;;;;9.21;72.24;98521.31;5073212;28;20080;-54
2022/09/28 03:37:20;;;;;;;3.90;2.55;;;;;;;9.24;72.23;98526.34;5072852;28;20028;-55
2022/09/28 03:39:46;;;;;;;3.53;2.80;;;;;;;9.24;71.74;98513.00;5073079;28;20508;-54
2022/09/28 03:42:11;;;;;;;3.95;2.70;;;;;;;9.28;71.86;98509.91;5072814;28;20646;-54
2022/09/28 03:44:36;;;;;;;4.05;2.90;;;;;;;9.22;71.94;98505.16;5072253;28;20114;-53
2022/09/28 03:47:02;;;;;;;3.45;2.60;;;;;;;9.26;71.59;98501.19;5072876;28;20036;-54
2022/09/28 03:49:28;;;;;;;3.70;2.95;;;;;;;9.33;71.39;98504.13;5072609;28;20040;-55
2022/09/28 03:51:53;;;;;;;2.80;2.40;;;;;;;9.09;71.92;98467.25;5073062;28;20040;-53
2022/09/28 03:54:18;;;;;;;4.50;3.00;;;;;;;9.07;71.93;98464.75;5072853;28;20032;-50
2022/09/28 03:56:44;;;;;;;4.68;2.90;;;;;;;9.19;72.38;98489.44;5072155;28;20032;-53
2022/09/28 03:59:09;;;;;;;4.78;2.70;;;;;;;9.21;72.23;98479.44;5072373;28;20032;-52
2022/09/28 04:01:35;;;;;;;3.05;2.70;;;;;;;9.11;72.49;98462.59;5072628;28;20548;-52
2022/09/28 04:04:00;;;;;;;4.82;2.28;;;;;;;9.27;71.83;98470.81;5071067;28;20052;-50
2022/09/28 04:06:26;;;;;;;5.88;2.92;;;;;;;9.19;71.96;98468.06;5072152;28;20046;-54
2022/09/28 04:08:52;;;;;;;4.60;2.63;;;;;;;9.07;72.20;98455.88;5072478;28;20036;-54
2022/09/28 04:11:17;;;;;;;4.00;2.70;;;;;;;9.19;72.02;98476.06;5072069;28;20111;-57
2022/09/28 04:13:47;;;;;;;4.13;2.80;;;;;;;9.21;72.06;98471.44;5072002;28;20060;-55
2022/09/28 04:16:14;;;;;;;4.70;2.83;;;;;;;9.21;72.46;98471.44;5072368;28;20828;-56
2022/09/28 04:18:40;;;;;;;7.10;3.00;;;;;;;9.23;72.33;98465.91;5072554;28;20033;-55
2022/09/28 04:21:09;;;;;;;5.15;3.22;;;;;;;9.35;71.32;98462.06;5072389;28;20082;-57
2022/09/28 04:23:36;;;;;;;5.30;2.92;;;;;;;9.31;72.02;98469.53;5072259;28;20450;-61
2022/09/28 04:26:04;;;;;;;5.05;3.15;;;;;;;9.30;71.83;98465.19;5072425;28;20029;-54
2022/09/28 04:31:17;;;;;;;6.55;3.28;;;;;;;9.25;71.65;98462.13;5072357;28;20028;-56
2022/09/28 04:33:43;;;;;;;7.25;3.70;;;;;;;9.15;72.37;98456.84;5072135;28;20028;-55
2022/09/28 04:36:09;;;;;;;6.65;3.60;;;;;;;9.18;72.63;98450.38;5070911;28;20127;-57
2022/09/28 04:38:36;;;;;;;7.20;3.75;;;;;;;9.22;72.44;98450.88;5072136;28;20028;-56
2022/09/28 04:41:01;;;;;;;6.07;3.00;;;;;;;9.27;72.32;98443.25;5072310;28;20112;-52
2022/09/28 04:43:27;;;;;;;7.10;3.22;;;;;;;9.36;72.30;98449.53;5072390;28;20162;-56
2022/09/28 04:45:58;;;;;;;7.10;3.03;;;;;;;9.41;71.81;98440.09;5072098;28;20031;-57
2022/09/28 04:48:24;;;;;;;4.40;3.10;;;;;;;9.39;71.40;98441.22;5072196;28;20055;-58
2022/09/28 04:50:54;;;;;;;6.20;3.50;;;;;;;9.45;71.53;98444.13;5072434;28;20120;-54
2022/09/28 04:53:19;;;;;;;5.80;3.08;;;;;;;9.46;71.39;98440.47;5071005;28;20439;-57
2022/09/28 04:55:56;;;;;;;4.38;2.75;;;;;;;9.54;71.44;98439.72;5070598;28;20036;-53
2022/09/28 04:58:22;;;;;;;5.00;2.70;;;;;;;9.50;71.15;98446.38;5072406;28;20029;-57
2022/09/28 05:00:50;;;;;;;4.47;2.90;;;;;;;9.38;71.34;98420.84;5071790;28;20103;-56
2022/09/28 05:03:18;;;;;;;3.78;2.47;;;;;;;9.52;71.22;98431.03;5072101;28;20086;-56
2022/09/28 05:05:44;;;;;;;5.78;2.67;;;;;;;9.61;71.27;98445.31;5071738;28;20032;-55
2022/09/28 05:08:10;;;;;;;2.90;2.40;;;;;;;9.61;71.24;98440.78;5072132;28;20454;-57
2022/09/28 05:10:39;;;;;;;3.38;2.70;;;;;;;9.61;71.18;98434.63;5072143;28;20360;-59
2022/09/28 05:13:05;;;;;;;4.57;2.95;;;;;;;9.73;70.53;98428.03;5071751;28;20028;-55
2022/09/28 05:15:30;;;;;;;3.55;2.78;;;;;;;9.68;70.68;98424.16;5071282;28;20512;-56
2022/09/28 05:17:56;;;;;;;2.50;2.30;;;;;;;9.67;70.95;98428.66;5071950;28;20032;-57
2022/09/28 05:20:21;;;;;;;6.28;3.08;;;;;;;9.69;70.74;98421.31;5072169;28;20078;-58
2022/09/28 05:22:46;;;;;;;4.45;2.83;;;;;;;9.72;70.82;98417.53;5071439;28;20907;-59
2022/09/28 05:25:12;;;;;;;4.68;2.63;;;;;;;9.75;70.64;98415.34;5074109;28;20036;-59
2022/09/28 05:27:37;;;;;;;3.60;2.88;;;;;;;9.73;71.26;98417.34;5075702;28;20058;-56
2022/09/28 05:30:03;;;;;;;4.95;3.70;;;;;;;9.79;71.25;98415.06;5075545;28;20438;-56
2022/09/28 05:32:29;;;;;;;4.15;2.50;;;;;;;9.85;70.83;98409.94;5074869;28;20439;-54
2022/09/28 05:34:55;;;;;;;3.80;2.80;;;;;;;9.92;70.55;98415.50;5075229;28;20032;-55
2022/09/28 05:37:20;;;;;;;3.33;2.45;;;;;;;10.03;70.00;98419.78;5075036;28;20032;-54
2022/09/28 05:39:45;;;;;;;3.78;3.03;;;;;;;9.96;70.57;98416.06;5074148;28;20665;-59
2022/09/28 05:42:11;;;;;;;3.83;2.50;;;;;;;9.93;70.78;98411.84;5074180;28;20032;-60
2022/09/28 05:44:37;;;;;;;5.57;2.78;;;;;;;9.86;71.50;98411.59;5073710;28;20358;-60
2022/09/28 05:47:02;;;;;;;5.05;2.85;;;;;;;9.82;71.81;98401.41;5075226;28;20074;-59
2022/09/28 05:49:30;;;;;;;3.83;2.80;;;;;;;9.86;71.64;98406.25;5074737;28;20040;-60
2022/09/28 05:51:56;;;;;;;7.07;2.83;;;;;;;9.85;72.33;98406.44;5075192;28;20032;-57
2022/09/28 05:54:21;;;;;;;6.55;3.10;;;;;;;9.86;72.52;98398.25;5074491;28;20029;-60
2022/09/28 05:56:47;;;;;;;5.30;2.60;;;;;;;9.88;72.53;98392.75;5074124;28;20033;-59
2022/09/28 05:59:12;;;;;;;3.70;2.70;;;;;;;9.87;72.71;98394.56;5074388;28;20119;-60
2022/09/28 06:01:38;;;;;;;3.22;2.83;;;;;;;9.91;72.84;98392.44;5074512;28;20106;-59
2022/09/28 06:04:03;;;;;;;4.47;2.67;;;;;;;9.96;72.41;98390.13;5073788;28;20465;-61
2022/09/28 06:06:28;;;;;;;4.60;2.53;;;;;;;9.97;72.70;98391.00;5075449;28;20028;-58
2022/09/28 06:08:54;;;;;;;4.70;2.60;;;;;;;9.95;72.11;98382.28;5074496;28;20032;-61
2022/09/28 06:11:19;;;;;;;5.75;2.50;;;;;;;9.98;72.71;98390.81;5072996;28;20043;-61
2022/09/28 06:13:45;;;;;;;2.88;2.58;;;;;;;9.99;72.50;98389.00;5074599;28;20046;-56
2022/09/28 06:16:15;;;;;;;2.97;2.53;;;;;;;10.05;72.83;98372.31;5072127;28;20105;-60
2022/09/28 06:18:41;;;;;;;5.65;3.08;;;;;;;10.05;72.21;98381.19;5074465;28;20037;-59
2022/09/28 06:21:09;;;;;;;4.50;2.55;;;;;;;10.08;72.35;98374.69;5074216;28;20067;-58
2022/09/28 06:23:35;;;;;;;3.67;2.58;;;;;;;10.05;72.26;98378.53;5069696;28;20431;-56
2022/09/28 06:26:00;;;;;;;4.38;2.50;;;;;;;10.00;72.29;98382.66;5072020;28;20075;-58
2022/09/28 06:28:26;;;;;;;2.55;1.85;;;;;;;10.01;72.63;98376.31;5072708;28;20032;-55
2022/09/28 06:30:52;;;;;;;2.30;2.08;;;;;;;10.05;72.55;98377.66;5064567;28;20380;-59
2022/09/28 06:33:17;;;;;;;5.55;2.33;;;;;;;10.12;72.31;98391.25;5073816;28;20033;-55
2022/09/28 06:35:43;;;;;;;4.40;2.55;;;;;;;10.13;72.23;98388.44;5072825;28;20032;-55
2022/09/28 06:38:09;;;;;;;3.65;2.10;;;;;;;10.20;71.81;98391.31;5072519;28;20059;-52
2022/09/28 06:40:35;;;;;;;2.95;2.15;;;;;;;10.27;71.77;98386.19;5072591;28;20067;-55
2022/09/28 06:43:01;;;;;;;4.50;2.22;;;;;;;10.32;71.55;98390.06;5072464;28;20060;-62
2022/09/28 06:45:28;;;;;;;5.38;2.35;;;;;;;10.43;71.43;98391.66;5073972;28;20094;-57
2022/09/28 06:47:56;;;;;;;3.70;2.30;;;;;;;10.46;71.06;98391.34;5073610;28;20461;-56
2022/09/28 06:50:26;;;;;;;3.40;2.00;;;;;;;10.47;70.87;98387.66;5073465;28;20052;-55
2022/09/28 06:52:53;;;;;;;3.65;2.33;;;;;;;10.41;70.75;98380.28;5072718;28;20044;-56
2022/09/28 06:55:20;;;;;;;2.38;2.03;;;;;;;10.49;70.86;98384.84;5071696;28;20043;-55
2022/09/28 06:57:46;;;;;;;3.00;2.13;;;;;;;10.54;71.21;98381.69;5062041;28;20051;-55
2022/09/28 07:00:12;;;;;;;4.22;2.47;;;;;;;10.58;70.70;98377.69;5073151;28;20033;-52
2022/09/28 07:02:53;;;;;;;4.82;2.60;;;;;;;10.71;70.36;98388.78;5057574;28;20055;-51
2022/09/28 07:05:25;;;;;;;3.30;1.75;;;;;;;10.71;69.62;98377.22;5072583;28;20120;-57
2022/09/28 07:07:54;;;;;;;3.60;1.80;;;;;;;10.76;69.97;98375.75;5073372;28;20526;-58
2022/09/28 07:10:24;;;;;;;4.57;2.33;;;;;;;10.80;69.69;98368.25;5073339;28;20070;-56
2022/09/28 07:12:50;;;;;;;4.15;2.35;;;;;;;10.78;69.64;98362.22;5071761;28;20174;-55
2022/09/28 07:15:17;;;;;;;3.17;2.17;;;;;;;10.84;69.58;98371.44;5072282;28;20032;-57
2022/09/28 07:17:43;;;;;;;4.30;2.47;;;;;;;10.85;69.24;98373.09;5073157;28;20048;-56
2022/09/28 07:20:09;;;;;;;3.30;2.58;;;;;;;10.70;69.41;98338.94;5072906;28;20025;-51
2022/09/28 07:22:34;;;;;;;4.53;2.42;;;;;;;10.93;69.47;98372.31;5072630;28;20312;-55
2022/09/28 07:25:00;;;;;;;2.75;2.08;;;;;;;10.99;69.12;98364.47;5073537;28;20032;-55
2022/09/28 07:27:26;;;;;;;3.83;1.85;;;;;;;10.84;69.18;98334.81;5072506;28;20040;-56
2022/09/28 07:29:54;;;;;;;4.88;2.88;;;;;;;10.98;69.19;98364.66;5071637;28;20790;-56
2022/09/28 07:32:20;;;;;;;5.72;3.22;;;;;;;10.97;68.85;98366.47;5072469;28;20100;-54
2022/09/28 07:34:47;;;;;;;4.53;3.08;;;;;;;10.98;69.47;98370.81;5073048;28;20046;-53
2022/09/28 07:37:13;;;;;;;6.95;2.42;;;;;;;10.85;69.41;98330.28;5072639;28;20040;-56
2022/09/28 07:42:25;;;;;;;4.63;2.67;;;;;;;11.23;68.49;98376.25;5072547;28;20043;-56
2022/09/28 07:44:50;;;;;;;4.85;2.80;;;;;;;11.16;68.20;98373.38;5072815;28;20024;-56
2022/09/28 07:47:17;;;;;;;3.30;2.40;;;;;;;10.98;69.06;98344.03;5071185;28;20029;-58
2022/09/28 07:49:43;;;;;;;4.38;2.20;;;;;;;11.16;68.89;98359.16;5070328;28;20067;-57
2022/09/28 07:52:09;;;;;;;3.67;2.60;;;;;;;11.15;68.91;98362.84;5072662;28;20115;-58
2022/09/28 07:54:35;;;;;;;6.03;2.70;;;;;;;11.08;68.94;98362.66;5072215;28;20451;-58
2022/09/28 07:57:00;;;;;;;4.07;2.97;;;;;;;11.07;69.20;98366.34;5072193;28;20041;-58
2022/09/28 07:59:26;;;;;;;3.17;2.47;;;;;;;11.10;69.47;98362.50;5071705;28;20024;-58
2022/09/28 08:01:51;;;;;;;3.60;2.72;;;;;;;11.19;69.40;98364.19;5072282;28;20135;-56
2022/09/28 08:04:17;;;;;;;5.22;2.70;;;;;;;11.14;69.13;98329.03;5072329;28;20061;-57
2022/09/28 08:06:43;;;;;;;7.60;3.15;;;;;;;11.46;68.50;98360.41;5071777;28;20033;-56
2022/09/28 08:09:09;;;;;;;6.18;3.28;;;;;;;11.63;68.28;98344.31;5071843;28;20033;-58
2022/09/28 08:11:35;;;;;;;3.45;2.70;;;;;;;11.76;67.20;98344.66;5071840;28;20082;-56
2022/09/28 08:14:01;;;;;;;6.20;2.50;;;;;;;11.86;66.97;98355.22;5072503;28;20124;-58
2022/09/28 08:16:27;;;;;;;3.92;2.55;;;;;;;11.81;66.44;98349.50;5072413;28;20096;-56
2022/09/28 08:18:53;;;;;;;3.97;2.25;;;;;;;11.73;66.88;98342.31;5071602;28;20431;-57
2022/09/28 08:24:05;;;;;;;3.55;2.35;;;;;;;11.96;66.45;98354.19;5072024;28;20108;-57
2022/09/28 08:26:30;;;;;;;4.05;2.70;;;;;;;12.02;66.19;98348.16;5067016;28;20128;-57
2022/09/28 08:28:56;;;;;;;8.05;2.97;;;;;;;12.03;66.11;98337.28;5071968;28;20418;-55
2022/09/28 08:31:21;;;;;;;5.20;3.03;;;;;;;12.04;65.96;98335.41;5071963;28;20078;-59
2022/09/28 08:33:53;;;;;;;4.68;3.00;;;;;;;12.10;65.97;98337.44;5071495;28;20025;-55
2022/09/28 08:36:22;;;;;;;4.45;2.63;;;;;;;12.19;65.60;98332.91;5071709;28;20386;-55
2022/09/28 08:38:48;;;;;;;3.20;2.10;;;;;;;12.26;65.18;98346.44;5071675;28;20024;-54
2022/09/28 08:41:23;;;;;;;5.82;2.20;;;;;;;12.31;64.99;98339.56;5071322;28;20029;-57
2022/09/28 08:44:25;;;;;;;3.47;2.25;;;;;;;12.46;65.03;98347.72;5071633;28;20051;-55
2022/09/28 08:47:04;;;;;;;3.42;1.90;;;;;;;12.41;64.91;98347.41;5061383;28;20054;-57
2022/09/28 08:49:40;;;;;;;3.92;2.30;;;;;;;12.42;64.92;98345.56;5052227;28;20059;-59
2022/09/28 08:52:22;;;;;;;4.28;2.40;;;;;;;12.38;64.67;98336.19;5067720;28;20044;-61
2022/09/28 08:54:57;;;;;;;5.00;2.38;;;;;;;12.46;64.81;98334.31;5071675;28;20040;-60
2022/09/28 08:57:34;;;;;;;4.60;2.55;;;;;;;12.51;64.73;98330.28;5070818;28;20530;-60
2022/09/28 09:00:03;;;;;;;5.90;2.50;;;;;;;12.41;64.58;98330.47;5073915;28;20060;-62
2022/09/28 09:02:32;;;;;;;8.32;3.40;;;;;;;12.39;64.88;98332.50;5075302;28;20112;-61
2022/09/28 09:04:59;;;;;;;4.47;2.92;;;;;;;12.47;65.02;98335.97;5075491;28;20040;-60
2022/09/28 09:07:30;;;;;;;4.68;2.63;;;;;;;12.65;64.26;98332.25;5075513;28;20115;-59
2022/09/28 09:10:10;;;;;;;2.92;2.30;;;;;;;12.94;63.74;98321.88;5075653;28;20524;-58
2022/09/28 09:12:38;;;;;;;4.43;2.25;;;;;;;13.00;62.78;98329.22;5074375;28;20032;-60
2022/09/28 09:15:19;;;;;;;5.05;2.00;;;;;;;13.02;62.84;98322.66;5074858;28;20028;-60
2022/09/28 09:18:05;;;;;;;4.13;2.53;;;;;;;13.25;62.74;98332.56;5074073;28;20358;-56
2022/09/28 09:20:47;;;;;;;6.45;2.70;;;;;;;13.21;62.21;98342.00;5064522;28;20099;-54
2022/09/28 09:23:19;;;;;;;4.50;2.80;;;;;;;13.04;62.47;98342.13;5074559;28;20163;-60
2022/09/28 09:25:59;;;;;;;7.28;3.75;;;;;;;12.98;63.27;98337.44;5074216;28;20449;-58
2022/09/28 09:28:30;;;;;;;6.70;3.63;;;;;;;12.95;63.17;98347.72;5074985;28;20036;-59
2022/09/28 09:31:20;;;;;;;5.75;3.10;;;;;;;12.89;63.14;98344.69;5074691;28;20474;-61
2022/09/28 09:34:53;;;;;;;5.60;3.13;;;;;;;12.92;64.06;98340.84;5073527;28;20058;-60
2022/09/28 09:37:46;;;;;;;6.72;3.03;;;;;;;12.80;63.89;98343.09;4983135;28;20046;-59
2022/09/28 09:40:52;;;;;;;4.88;3.30;;;;;;;12.62;63.98;98337.97;5071515;28;20727;-60
2022/09/28 09:43:46;;;;;;;4.25;2.88;;;;;;;12.62;64.81;98343.34;5026967;28;20042;-57
2022/09/28 09:46:33;;;;;;;6.25;3.15;;;;;;;12.56;64.67;98346.72;5054170;28;20497;-60
2022/09/28 09:49:17;;;;;;;5.55;3.33;;;;;;;12.69;64.60;98348.84;5055976;28;20067;-59
2022/09/28 09:51:58;;;;;;;4.68;3.08;;;;;;;12.71;64.55;98350.31;5072720;28;20032;-61
2022/09/28 09:54:38;;;;;;;3.90;2.92;;;;;;;12.78;64.28;98342.41;5072495;28;20370;-60
2022/09/28 09:57:53;;;;;;;3.65;2.72;;;;;;;12.72;64.20;98341.25;5073513;28;20115;-60
2022/09/28 10:00:18;;;;;;;5.32;3.10;;;;;;;12.44;63.94;98338.19;5034706;28;20055;-60
2022/09/28 10:02:47;;;;;;;7.25;3.10;;;;;;;12.43;64.71;98345.41;5053353;28;20028;-61
2022/09/28 10:05:12;;;;;;;4.82;2.97;;;;;;;12.45;64.53;98342.56;5058849;28;20169;-55
2022/09/28 10:07:48;;;;;;;4.90;3.47;;;;;;;12.56;64.49;98344.84;5074391;28;20043;-60
2022/09/28 10:10:35;;;;;;;3.70;3.03;;;;;;;12.78;64.21;98343.28;5073927;28;20135;-61
2022/09/28 10:13:02;;;;;;;6.88;3.53;;;;;;;12.64;63.78;98331.38;5074449;28;20522;-61
2022/09/28 10:15:30;;;;;;;4.88;3.22;;;;;;;12.66;64.02;98338.44;5074078;28;20367;-61
2022/09/28 10:17:59;;;;;;;4.38;2.97;;;;;;;12.69;63.79;98344.31;5088519;28;20392;-61
2022/09/28 10:20:28;;;;;;;4.07;2.85;;;;;;;12.74;63.79;98347.28;5074040;28;20518;-61
2022/09/28 10:22:56;;;;;;;5.50;3.45;;;;;;;12.76;63.08;98356.00;5073893;28;20373;-60
2022/09/28 10:25:23;;;;;;;6.88;3.53;;;;;;;12.78;63.51;98340.59;5073392;28;20029;-61
2022/09/28 10:27:51;;;;;;;4.78;3.60;;;;;;;12.85;63.39;98347.94;5073942;28;20028;-61
2022/09/28 10:30:22;;;;;;;6.78;3.78;;;;;;;12.85;63.56;98334.50;5072955;28;20412;-62
2022/09/28 10:32:54;;;;;;;6.75;3.85;;;;;;;12.99;63.50;98349.03;5074192;28;20051;-61
2022/09/28 10:35:29;;;;;;;5.78;3.78;;;;;;;13.03;63.35;98347.66;5073987;28;20398;-61
2022/09/28 10:38:15;;;;;;;7.40;4.05;;;;;;;13.07;63.41;98346.31;5073967;28;20431;-62
2022/09/28 10:40:45;;;;;;;6.88;4.05;;;;;;;12.95;63.13;98353.91;5054021;28;20037;-64
2022/09/28 10:43:29;;;;;;;6.03;3.85;;;;;;;12.96;63.51;98352.91;5069369;28;20025;-61
2022/09/28 10:46:04;;;;;;;5.05;4.22;;;;;;;12.91;63.71;98344.53;5074624;28;20115;-61
2022/09/28 10:48:45;;;;;;;7.35;4.30;;;;;;;12.96;63.69;98344.84;5073103;28;20047;-61
2022/09/28 10:51:11;;;;;;;6.43;4.32;;;;;;;12.99;63.20;98339.13;5072904;28;20135;-61
2022/09/28 10:53:37;;;;;;;5.88;4.45;;;;;;;12.96;62.94;98336.78;5074042;28;20119;-59
2022/09/28 10:56:04;;;;;;;6.95;4.40;;;;;;;12.95;63.21;98340.47;5073824;28;20071;-62
2022/09/28 10:58:39;;;;;;;6.93;4.60;;;;;;;13.00;63.52;98338.09;5072746;28;20119;-62
2022/09/28 11:01:11;;;;;;;9.60;5.18;;;;;;;13.02;63.04;98330.72;5072665;28;20028;-60
2022/09/28 11:04:00;;;;;;;7.53;4.97;;;;;;;13.24;63.01;98341.66;5073767;28;20032;-60
2022/09/28 11:06:28;;;;;;;8.88;5.97;;;;;;;13.33;62.37;98335.22;5072921;28;20370;-60
2022/09/28 11:09:00;;;;;;;10.32;6.53;;;;;;;13.48;62.01;98334.47;5072754;28;20039;-61
2022/09/28 11:11:28;;;;;;;8.25;5.45;;;;;;;13.44;61.60;98330.47;5072542;28;20371;-62
2022/09/28 11:13:59;;;;;;;6.95;5.05;;;;;;;13.40;61.57;98343.44;5072005;28;20036;-62
2022/09/28 11:16:35;;;;;;;8.07;5.38;;;;;;;13.37;62.02;98340.25;5073339;28;20028;-61
2022/09/28 11:19:19;;;;;;;9.02;5.85;;;;;;;13.42;62.30;98346.78;5072699;28;20028;-61
2022/09/28 11:21:47;;;;;;;6.72;4.85;;;;;;;13.18;62.17;98328.94;5052584;28;20371;-60
2022/09/28 11:24:19;;;;;;;9.65;5.50;;;;;;;13.28;61.96;98352.91;5052350;28;20032;-61
2022/09/28 11:26:48;;;;;;;8.02;5.38;;;;;;;13.08;62.20;98331.84;5058841;28;20036;-62
2022/09/28 11:29:33;;;;;;;7.28;5.32;;;;;;;13.09;62.61;98349.66;5071158;28;20040;-62
2022/09/28 11:32:04;;;;;;;8.43;5.03;;;;;;;12.91;62.79;98353.44;5073431;28;20359;-60
2022/09/28 11:34:51;;;;;;;8.98;5.40;;;;;;;12.88;63.57;98347.59;5073798;28;20113;-62
2022/09/28 11:37:26;;;;;;;10.50;4.97;;;;;;;12.84;63.39;98351.63;5072507;28;20423;-61
2022/09/28 11:39:52;;;;;;;10.80;4.90;;;;;;;12.81;63.38;98354.69;5072406;28;20204;-61
2022/09/28 11:42:39;;;;;;;7.93;4.80;;;;;;;12.93;63.58;98350.56;5072537;28;20371;-61
2022/09/28 11:45:23;;;;;;;5.88;4.38;;;;;;;12.95;63.10;98350.41;5069826;28;20021;-60
2022/09/28 11:47:53;;;;;;;7.82;5.10;;;;;;;12.98;62.60;98350.06;5056567;28;20032;-59
2022/09/28 11:50:52;;;;;;;7.63;5.55;;;;;;;13.09;63.11;98351.50;5071879;28;20048;-57
2022/09/28 11:53:32;;;;;;;10.65;5.55;;;;;;;12.87;62.63;98353.97;5067927;28;20451;-62
2022/09/28 11:56:20;;;;;;;8.07;5.25;;;;;;;12.75;62.86;98358.88;5072672;28;20062;-60
2022/09/28 11:58:49;;;;;;;7.43;5.20;;;;;;;12.74;63.04;98357.22;5066379;28;20033;-60
2022/09/28 12:01:41;;;;;;;8.68;5.43;;;;;;;12.90;63.18;98356.31;5066417;28;20036;-60
2022/09/28 12:04:16;;;;;;;6.20;5.13;;;;;;;12.81;62.75;98352.00;5072695;28;20036;-61